createdAt,value
2019-03-05T00:01:10.921Z,4.17
2019-03-05T00:03:39.259Z,3.63
2019-03-05T00:06:07.645Z,3.97
2019-03-05T00:08:36.033Z,3.73
2019-03-05T00:11:06.145Z,4.40
2019-03-05T00:13:34.529Z,4.27
2019-03-05T00:16:02.927Z,4.00
2019-03-05T00:18:31.316Z,3.47
2019-03-05T00:20:59.722Z,3.40
2019-03-05T00:23:34.098Z,3.30
2019-03-05T00:26:02.502Z,4.17
2019-03-05T00:28:52.267Z,4.00
2019-03-05T00:31:29.985Z,3.80
2019-03-05T00:34:31.771Z,4.30
2019-03-05T00:37:09.048Z,4.80
2019-03-05T00:39:49.306Z,3.60
2019-03-05T00:42:54.169Z,4.07
2019-03-05T00:45:43.738Z,4.40
2019-03-05T00:48:47.969Z,4.30
2019-03-05T00:51:46.622Z,4.57
2019-03-05T00:54:34.814Z,4.30
2019-03-05T00:57:08.898Z,3.90
2019-03-05T00:59:40.347Z,3.77
2019-03-05T01:02:17.482Z,4.50
2019-03-05T01:05:03.834Z,4.03
2019-03-05T01:07:32.248Z,4.00
2019-03-05T01:10:00.631Z,4.90
2019-03-05T01:12:29.091Z,5.70
2019-03-05T01:14:59.261Z,4.47
2019-03-05T01:17:27.645Z,5.40
2019-03-05T01:19:56.040Z,4.70
2019-03-05T01:22:24.728Z,5.70
2019-03-05T01:24:53.119Z,4.97
2019-03-05T01:27:21.518Z,4.63
2019-03-05T01:29:49.907Z,6.27
2019-03-05T01:32:20.836Z,5.83
2019-03-05T01:35:07.074Z,5.90
2019-03-05T01:37:35.475Z,6.73
2019-03-05T01:40:06.442Z,6.30
2019-03-05T01:42:34.943Z,5.63
2019-03-05T01:45:04.513Z,7.73
2019-03-05T01:47:33.021Z,7.20
2019-03-05T01:50:01.528Z,7.47
2019-03-05T01:52:29.984Z,6.70
2019-03-05T01:54:58.373Z,6.90
2019-03-05T01:57:26.784Z,7.37
2019-03-05T01:59:55.184Z,6.77
2019-03-05T02:02:23.582Z,7.40
2019-03-05T02:04:52.062Z,7.93
2019-03-05T02:07:20.536Z,9.33
2019-03-05T02:09:48.927Z,8.80
2019-03-05T02:12:17.326Z,9.33
2019-03-05T02:14:45.715Z,8.07
2019-03-05T02:17:14.117Z,6.57
2019-03-05T02:19:44.547Z,5.30
2019-03-05T02:22:25.255Z,4.50
2019-03-05T02:25:02.043Z,5.30
2019-03-05T02:27:52.841Z,6.80
2019-03-05T02:30:24.281Z,6.53
2019-03-05T02:33:12.616Z,6.80
2019-03-05T02:35:56.140Z,7.50
2019-03-05T02:38:33.488Z,8.33
2019-03-05T02:41:13.854Z,9.80
2019-03-05T02:43:57.164Z,9.23
2019-03-05T02:46:40.377Z,9.27
2019-03-05T02:49:17.859Z,8.90
2019-03-05T02:52:04.353Z,8.60
2019-03-05T02:54:50.970Z,9.20
2019-03-05T02:57:18.511Z,8.60
2019-03-05T02:59:46.903Z,9.10
2019-03-05T03:02:32.083Z,10.00
2019-03-05T03:05:05.060Z,9.40
2019-03-05T03:07:33.488Z,8.43
2019-03-05T03:12:49.792Z,7.53
2019-03-05T03:15:58.088Z,8.40
2019-03-05T03:18:26.494Z,7.40
2019-03-05T03:20:54.884Z,7.67
2019-03-05T03:23:42.544Z,8.57
2019-03-05T03:26:10.927Z,7.23
2019-03-05T03:28:58.665Z,5.77
2019-03-05T03:31:46.310Z,7.50
2019-03-05T03:34:14.838Z,7.00
2019-03-05T03:39:32.267Z,7.37
2019-03-05T03:42:00.665Z,7.30
2019-03-05T03:44:29.071Z,6.57
2019-03-05T03:46:57.466Z,6.50
2019-03-05T03:49:45.116Z,5.40
2019-03-05T03:52:32.760Z,5.57
2019-03-05T03:55:20.408Z,5.40
2019-03-05T03:58:28.724Z,5.83
2019-03-05T04:01:16.369Z,6.00
2019-03-05T04:03:44.767Z,5.80
2019-03-05T04:06:13.154Z,5.03
2019-03-05T04:08:41.560Z,4.30
2019-03-05T04:11:29.186Z,4.87
2019-03-05T04:14:16.709Z,5.33
2019-03-05T04:17:04.358Z,4.70
2019-03-05T04:22:11.498Z,5.17
2019-03-05T04:24:39.900Z,4.30
2019-03-05T04:27:27.646Z,4.40
2019-03-05T04:29:56.050Z,4.77
2019-03-05T04:32:43.687Z,4.05
2019-03-05T04:35:52.002Z,4.53
2019-03-05T04:38:39.519Z,4.20
2019-03-05T04:41:07.917Z,5.17
2019-03-05T04:43:36.317Z,4.40
2019-03-05T04:54:08.549Z,4.50
2019-03-05T04:56:36.944Z,3.90
2019-03-05T04:59:24.469Z,4.00
2019-03-05T05:01:52.858Z,3.40
2019-03-05T05:04:40.508Z,3.57
2019-03-05T05:07:28.138Z,4.70
2019-03-05T05:09:56.535Z,3.93
2019-03-05T05:12:24.926Z,4.70
2019-03-05T05:14:53.334Z,4.37
2019-03-05T05:17:40.857Z,4.60
2019-03-05T05:20:09.259Z,5.10
2019-03-05T05:22:37.654Z,5.67
2019-03-05T05:25:25.460Z,4.87
2019-03-05T05:28:33.775Z,4.17
2019-03-05T05:33:35.909Z,3.30
2019-03-05T05:41:12.645Z,3.87
2019-03-05T05:43:41.034Z,2.77
2019-03-05T05:46:11.167Z,2.00
2019-03-05T05:48:58.689Z,2.87
2019-03-05T05:51:46.336Z,2.13
2019-03-05T05:54:14.736Z,1.70
2019-03-05T05:59:49.943Z,2.23
2019-03-05T06:02:37.459Z,1.67
2019-03-05T06:05:45.789Z,1.53
2019-03-05T06:08:33.428Z,1.63
2019-03-05T06:11:21.092Z,1.77
2019-03-05T06:13:49.494Z,2.30
2019-03-05T06:16:17.940Z,2.10
2019-03-05T06:19:05.474Z,2.07
2019-03-05T06:21:53.136Z,1.80
2019-03-05T06:27:08.982Z,2.70
2019-03-05T06:29:37.380Z,3.10
2019-03-05T06:32:05.781Z,3.37
2019-03-05T06:34:34.175Z,3.70
2019-03-05T06:37:02.569Z,3.77
2019-03-05T06:39:30.959Z,3.30
2019-03-05T06:42:18.480Z,3.67
2019-03-05T06:47:21.211Z,3.43
2019-03-05T06:49:49.611Z,4.20
2019-03-05T06:52:18.003Z,4.70
2019-03-05T06:55:05.658Z,5.00
2019-03-05T06:57:34.053Z,6.13
2019-03-05T07:02:57.086Z,4.97
2019-03-05T07:06:04.175Z,4.60
2019-03-05T07:08:32.566Z,4.83
2019-03-05T07:11:40.874Z,5.00
2019-03-05T07:14:49.179Z,5.60
2019-03-05T07:17:56.166Z,3.97
2019-03-05T07:21:04.486Z,4.87
2019-03-05T07:24:11.704Z,4.57
2019-03-05T07:26:40.107Z,4.57
2019-03-05T07:29:27.765Z,4.73
2019-03-05T07:31:56.170Z,4.03
2019-03-05T07:37:53.560Z,4.20
2019-03-05T07:40:41.189Z,4.60
2019-03-05T07:43:09.584Z,5.33
2019-03-05T07:45:57.217Z,4.93
2019-03-05T07:48:25.621Z,4.17
2019-03-05T07:51:13.345Z,3.60
2019-03-05T07:54:01.006Z,3.60
2019-03-05T07:56:48.643Z,3.50
2019-03-05T07:59:36.290Z,3.80
2019-03-05T08:04:58.948Z,4.57
2019-03-05T08:07:27.361Z,3.47
2019-03-05T08:10:34.337Z,3.90
2019-03-05T08:13:42.652Z,3.90
2019-03-05T08:16:30.163Z,4.40
2019-03-05T08:18:58.570Z,4.43
2019-03-05T08:21:26.960Z,4.83
2019-03-05T08:24:35.282Z,5.30
2019-03-05T08:27:03.673Z,4.90
2019-03-05T08:29:51.571Z,4.30
2019-03-05T08:37:29.542Z,5.20
2019-03-05T08:50:49.091Z,4.73
2019-03-05T08:53:17.496Z,5.00
2019-03-05T08:55:45.885Z,4.73
2019-03-05T08:58:54.195Z,4.57
2019-03-05T09:01:22.587Z,4.07
2019-03-05T09:04:10.239Z,4.60
2019-03-05T09:06:38.625Z,4.37
2019-03-05T09:09:46.956Z,3.40
2019-03-05T09:12:15.342Z,4.23
2019-03-05T09:14:43.743Z,4.20
2019-03-05T09:17:32.918Z,3.53
2019-03-05T09:20:01.323Z,3.40
2019-03-05T09:22:29.713Z,4.97
2019-03-05T09:24:58.218Z,4.10
2019-03-05T09:27:26.601Z,3.57
2019-03-05T09:30:14.245Z,3.47
2019-03-05T09:32:42.635Z,2.70
2019-03-05T09:35:51.200Z,2.80
2019-03-05T09:38:38.714Z,3.30
2019-03-05T09:41:07.107Z,3.37
2019-03-05T09:43:54.754Z,2.60
2019-03-05T09:46:23.144Z,2.77
2019-03-05T09:49:10.785Z,3.37
2019-03-05T09:51:58.294Z,3.20
2019-03-05T09:54:26.705Z,2.60
2019-03-05T09:57:14.329Z,3.00
2019-03-05T10:00:01.853Z,2.30
2019-03-05T10:05:59.233Z,3.23
2019-03-05T10:08:32.451Z,3.00
2019-03-05T10:11:37.655Z,4.20
2019-03-05T10:14:06.092Z,8.10
2019-03-05T10:16:34.487Z,3.50
2019-03-05T10:19:04.533Z,3.20
2019-03-05T10:24:20.443Z,3.53
2019-03-05T10:27:07.950Z,2.83
2019-03-05T10:29:36.345Z,2.90
2019-03-05T10:32:23.857Z,3.03
2019-03-05T10:34:52.254Z,2.70
2019-03-05T10:41:08.627Z,2.30
2019-03-05T10:44:16.942Z,2.80
2019-03-05T10:47:25.239Z,2.27
2019-03-05T10:50:33.556Z,3.10
2019-03-05T10:53:01.951Z,2.47
2019-03-05T10:56:10.253Z,3.23
2019-03-05T10:58:38.644Z,3.43
2019-03-05T11:01:26.382Z,2.73
2019-03-05T11:03:54.771Z,2.63
2019-03-05T11:06:23.174Z,2.40
2019-03-05T11:09:31.520Z,2.60
2019-03-05T11:12:39.889Z,3.10
2019-03-05T11:15:48.219Z,5.30
2019-03-05T11:21:43.857Z,4.80
2019-03-05T11:26:59.680Z,2.57
2019-03-05T11:32:34.633Z,2.40
2019-03-05T11:38:11.089Z,2.30
2019-03-05T11:41:19.405Z,2.53
2019-03-05T11:44:07.110Z,2.60
2019-03-05T11:46:35.516Z,1.73
2019-03-05T11:49:23.161Z,3.83
2019-03-05T11:54:25.788Z,3.13
2019-03-05T11:56:54.185Z,2.67
2019-03-05T11:59:41.823Z,2.57
2019-03-05T12:02:29.346Z,2.67
2019-03-05T12:04:57.735Z,2.60
2019-03-05T12:07:46.203Z,2.13
2019-03-05T12:10:34.912Z,2.20
2019-03-05T12:13:03.326Z,2.37
2019-03-05T12:16:11.670Z,2.40
2019-03-05T12:18:40.077Z,2.90
2019-03-05T12:21:27.746Z,1.77
2019-03-05T12:24:15.395Z,1.90
2019-03-05T12:26:43.802Z,2.60
2019-03-05T12:29:31.534Z,2.20
2019-03-05T12:32:19.203Z,2.10
2019-03-05T12:34:47.599Z,2.23
2019-03-05T12:40:09.080Z,1.90
2019-03-05T12:42:56.715Z,2.03
2019-03-05T12:46:05.044Z,2.37
2019-03-05T12:54:02.308Z,2.80
2019-03-05T12:56:49.841Z,2.40
2019-03-05T12:59:18.251Z,2.50
2019-03-05T13:02:05.915Z,2.40
2019-03-05T13:04:34.337Z,2.50
2019-03-05T13:07:22.000Z,2.90
2019-03-05T13:09:52.580Z,2.90
2019-03-05T13:12:20.547Z,2.37
2019-03-05T13:14:48.974Z,3.83
2019-03-05T13:17:17.373Z,3.37
2019-03-05T13:19:47.907Z,3.40
2019-03-05T13:24:50.314Z,3.63
2019-03-05T13:27:22.834Z,3.80
2019-03-05T13:29:50.588Z,3.03
2019-03-05T13:32:39.260Z,3.30
2019-03-05T13:35:47.568Z,3.23
2019-03-05T13:38:15.969Z,2.97
2019-03-05T13:40:44.373Z,2.23
2019-03-05T13:43:12.861Z,2.50
2019-03-05T13:45:43.922Z,1.57
2019-03-05T13:48:58.040Z,1.80
2019-03-05T13:52:00.708Z,1.97
2019-03-05T13:55:08.871Z,2.00
2019-03-05T13:58:17.197Z,2.43
2019-03-05T14:07:43.311Z,2.40
2019-03-05T14:10:51.640Z,2.33
2019-03-05T14:19:09.299Z,3.27
2019-03-05T14:21:37.709Z,2.70
2019-03-05T14:24:06.081Z,3.13
2019-03-05T14:29:41.249Z,2.90
2019-03-05T14:32:49.584Z,3.30
2019-03-05T14:35:57.872Z,2.70
2019-03-05T14:38:45.549Z,2.67
2019-03-05T14:41:33.302Z,3.10
2019-03-05T14:44:01.711Z,4.90
2019-03-05T14:49:38.172Z,1.90
2019-03-05T14:52:46.496Z,2.03
2019-03-05T14:55:54.795Z,1.87
2019-03-05T14:58:23.261Z,2.17
2019-03-05T15:04:20.665Z,2.37
2019-03-05T15:06:49.963Z,1.97
2019-03-05T15:09:38.278Z,2.20
2019-03-05T15:12:06.656Z,2.30
2019-03-05T15:14:35.138Z,2.80
2019-03-05T15:17:03.552Z,2.30
2019-03-05T15:19:51.496Z,2.03
2019-03-05T15:22:39.432Z,2.60
2019-03-05T15:25:47.749Z,2.70
2019-03-05T15:28:16.155Z,2.70
2019-03-05T15:31:24.478Z,2.90
2019-03-05T15:33:52.884Z,2.93
2019-03-05T15:36:23.904Z,2.93
2019-03-05T15:39:10.499Z,2.90
2019-03-05T15:41:58.244Z,3.40
2019-03-05T15:44:45.748Z,3.30
2019-03-05T15:47:33.550Z,2.80
2019-03-05T15:53:17.111Z,3.40
2019-03-05T15:55:45.461Z,3.97
2019-03-05T15:58:33.269Z,3.87
2019-03-05T16:01:22.587Z,3.70
2019-03-05T16:04:10.854Z,3.70
2019-03-05T16:09:46.160Z,2.97
2019-03-05T16:12:14.887Z,3.43
2019-03-05T16:15:05.200Z,3.50
2019-03-05T16:17:32.739Z,3.07
2019-03-05T16:20:01.430Z,3.57
2019-03-05T16:22:51.058Z,3.33
2019-03-05T16:25:59.395Z,2.93
2019-03-05T16:28:47.028Z,2.50
2019-03-05T16:34:29.699Z,3.40
2019-03-05T16:37:17.207Z,2.67
2019-03-05T16:45:18.466Z,4.57
2019-03-05T16:48:06.089Z,4.50
2019-03-05T16:50:53.863Z,4.40
2019-03-05T16:53:41.372Z,6.20
2019-03-05T16:59:43.040Z,5.13
2019-03-05T17:02:30.567Z,5.20
2019-03-05T17:07:53.484Z,4.23
2019-03-05T17:13:16.882Z,4.60
2019-03-05T17:15:45.276Z,5.30
2019-03-05T17:18:32.919Z,5.40
2019-03-05T17:21:41.247Z,5.87
2019-03-05T17:24:49.552Z,5.37
2019-03-05T17:27:17.942Z,4.50
2019-03-05T17:29:46.325Z,4.43
2019-03-05T17:35:48.935Z,5.27
2019-03-05T17:38:36.438Z,4.83
2019-03-05T17:41:44.765Z,5.33
2019-03-05T17:44:13.154Z,5.40
2019-03-05T17:47:00.801Z,4.90
2019-03-05T17:52:16.631Z,5.07
2019-03-05T17:55:04.272Z,4.23
2019-03-05T17:57:32.670Z,4.30
2019-03-05T18:03:09.683Z,4.70
2019-03-05T18:05:38.092Z,4.60
2019-03-05T18:08:08.235Z,4.23
2019-03-05T18:10:55.851Z,5.07
2019-03-05T18:13:43.491Z,4.60
2019-03-05T18:16:31.019Z,5.23
2019-03-05T18:18:59.400Z,5.30
2019-03-05T18:24:21.208Z,5.80
2019-03-05T18:26:49.611Z,5.40
2019-03-05T18:29:37.126Z,6.70
2019-03-05T18:32:24.808Z,5.17
2019-03-05T18:35:12.483Z,5.13
2019-03-05T18:37:40.951Z,6.20
2019-03-05T18:40:49.264Z,5.47
2019-03-05T18:43:36.915Z,4.80
2019-03-05T18:46:24.571Z,5.00
2019-03-05T18:49:12.205Z,5.63
2019-03-05T18:51:59.851Z,5.83
2019-03-05T18:54:47.494Z,7.20
2019-03-05T18:57:35.547Z,9.50
2019-03-05T19:00:44.605Z,7.05
2019-03-05T19:03:32.347Z,7.80
2019-03-05T19:06:19.994Z,6.47
2019-03-05T19:08:48.733Z,5.03
2019-03-05T19:14:11.695Z,4.47
2019-03-05T19:16:40.090Z,4.73
2019-03-05T19:19:10.211Z,5.50
2019-03-05T19:21:38.610Z,6.33
2019-03-05T19:24:26.132Z,5.33
2019-03-05T19:26:54.524Z,5.13
2019-03-05T19:29:22.917Z,6.27
2019-03-05T19:31:51.315Z,6.43
2019-03-05T19:34:38.984Z,6.50
2019-03-05T19:37:07.383Z,6.30
2019-03-05T19:39:55.021Z,7.63
2019-03-05T19:42:42.675Z,5.80
2019-03-05T19:50:51.803Z,5.80
2019-03-05T19:53:39.328Z,7.07
2019-03-05T19:56:07.712Z,6.57
2019-03-05T20:04:25.790Z,6.93
2019-03-05T20:07:13.346Z,7.07
2019-03-05T20:12:31.226Z,6.33
2019-03-05T20:15:18.497Z,6.33
2019-03-05T20:17:48.619Z,6.20
2019-03-05T20:20:56.918Z,6.20
2019-03-05T20:23:44.647Z,6.63
2019-03-05T20:26:13.041Z,7.47
2019-03-05T20:28:41.789Z,6.70
2019-03-05T20:31:10.177Z,6.70
2019-03-05T20:36:12.885Z,6.80
2019-03-05T20:38:53.786Z,6.17
2019-03-05T20:41:22.183Z,6.90
2019-03-05T20:44:09.835Z,6.40
2019-03-05T20:46:57.346Z,6.80
2019-03-05T20:49:44.941Z,6.70
2019-03-05T20:55:00.772Z,7.27
2019-03-05T20:57:29.171Z,7.40
2019-03-05T20:59:57.585Z,6.80
2019-03-05T21:02:25.992Z,6.78
2019-03-05T21:05:13.493Z,7.10
2019-03-05T21:08:01.043Z,6.50
2019-03-05T21:10:48.684Z,6.70
2019-03-05T21:13:36.332Z,6.70
2019-03-05T21:16:24.064Z,6.60
2019-03-05T21:18:52.478Z,8.50
2019-03-05T21:21:40.115Z,9.10
2019-03-05T21:24:08.525Z,14.87
2019-03-05T21:26:38.642Z,7.80
2019-03-05T21:29:26.291Z,8.30
2019-03-05T21:31:54.681Z,7.20
2019-03-05T21:34:42.193Z,7.97
2019-03-05T21:40:44.681Z,8.90
2019-03-05T21:43:13.080Z,6.67
2019-03-05T21:46:21.384Z,8.27
2019-03-05T21:48:49.781Z,7.90
2019-03-05T21:51:37.422Z,7.30
2019-03-05T21:54:25.149Z,7.37
2019-03-05T21:57:12.785Z,7.77
2019-03-05T22:00:00.434Z,7.13
2019-03-05T22:02:28.828Z,8.43
2019-03-05T22:04:58.951Z,8.10
2019-03-05T22:10:54.702Z,8.63
2019-03-05T22:13:23.106Z,7.20
2019-03-05T22:15:51.484Z,7.70
2019-03-05T22:18:39.003Z,8.43
2019-03-05T22:21:26.509Z,8.20
2019-03-05T22:23:54.911Z,7.60
2019-03-05T22:26:25.029Z,10.03
2019-03-05T22:28:53.425Z,9.27
2019-03-05T22:31:41.169Z,9.07
2019-03-05T22:34:09.570Z,8.83
2019-03-05T22:36:37.963Z,8.60
2019-03-05T22:39:46.281Z,8.57
2019-03-05T22:42:33.791Z,7.07
2019-03-05T22:45:02.192Z,7.83
2019-03-05T22:47:49.745Z,7.60
2019-03-05T22:50:58.023Z,7.73
2019-03-05T22:56:21.789Z,9.97
2019-03-05T22:58:50.191Z,9.40
2019-03-05T23:02:00.218Z,8.83
2019-03-05T23:05:08.536Z,9.67
2019-03-05T23:07:56.346Z,8.10
2019-03-05T23:10:24.747Z,8.33
2019-03-05T23:13:33.064Z,7.87
2019-03-05T23:16:43.097Z,9.23
2019-03-05T23:19:11.503Z,8.47
2019-03-05T23:22:19.884Z,7.97
2019-03-05T23:24:48.292Z,8.10
2019-03-05T23:27:18.414Z,7.83
2019-03-05T23:30:06.064Z,8.37
2019-03-05T23:32:34.465Z,7.93
2019-03-05T23:37:36.611Z,9.23
2019-03-05T23:40:44.922Z,8.40
2019-03-05T23:43:13.316Z,8.80
2019-03-05T23:48:54.414Z,8.73
2019-03-05T23:51:22.813Z,9.60
2019-03-05T23:54:10.469Z,8.63
2019-03-05T23:56:40.578Z,8.67
2019-03-05T23:59:08.978Z,9.13
